Time;durP1;ratioP1;P1;durP2;ratioP2;P2;SDS_P1;SDS_P2;PMS_P1;PMS_P2;Temp;Humidity;BMP_temperature;BMP_pressure;BME280_temperature;BME280_humidity;BME280_pressure;Samples;Min_cycle;Max_cycle;Signal;HPM_P1;HPM_P2
2021/03/11 00:00:36;;;;;;;73.97;65.40;;;21.40;50.00;;;;;;5073681;28;21518;-55
2021/03/11 00:03:11;;;;;;;72.93;61.63;;;21.30;49.90;;;;;;5071708;28;20056;-55
2021/03/11 00:05:39;;;;;;;69.20;59.85;;;21.30;50.00;;;;;;5073144;28;20021;-55
2021/03/11 00:08:05;;;;;;;71.93;61.00;;;21.30;50.00;;;;;;5070994;28;20020;-55
2021/03/11 00:10:33;;;;;;;71.05;59.15;;;21.30;50.00;;;;;;5073408;28;20526;-55
2021/03/11 00:12:59;;;;;;;64.78;52.92;;;21.30;50.00;;;;;;5060574;28;20107;-55
2021/03/11 00:15:26;;;;;;;55.83;48.22;;;21.30;50.00;;;;;;5073968;28;20040;-55
2021/03/11 00:17:53;;;;;;;52.83;45.85;;;21.20;50.00;;;;;;5054163;28;20173;-55
2021/03/11 00:20:24;;;;;;;52.17;44.70;;;21.20;49.90;;;;;;5072539;28;20032;-55
2021/03/11 00:22:51;;;;;;;53.25;45.20;;;21.20;50.00;;;;;;5073958;28;20117;-55
2021/03/11 00:25:20;;;;;;;51.63;44.42;;;21.20;50.00;;;;;;5073188;28;20405;-55
2021/03/11 00:27:46;;;;;;;47.97;42.08;;;21.20;50.00;;;;;;5073861;28;20355;-54
2021/03/11 00:30:14;;;;;;;45.88;40.53;;;21.20;50.00;;;;;;5073715;28;20020;-56
2021/03/11 00:32:40;;;;;;;44.60;38.47;;;21.20;50.00;;;;;;5073709;28;20086;-55
2021/03/11 00:35:08;;;;;;;46.55;39.95;;;21.20;50.00;;;;;;5073636;28;20040;-55
2021/03/11 00:37:35;;;;;;;39.95;34.33;;;21.20;50.00;;;;;;5072933;28;20029;-55
2021/03/11 00:40:01;;;;;;;42.85;36.72;;;21.20;49.90;;;;;;5073540;28;20025;-54
2021/03/11 00:42:27;;;;;;;43.05;36.20;;;21.20;50.00;;;;;;5073571;28;20039;-54
2021/03/11 00:44:53;;;;;;;38.60;34.22;;;21.20;50.00;;;;;;5073286;28;20413;-55
2021/03/11 00:47:19;;;;;;;41.97;34.55;;;21.10;49.90;;;;;;5072792;28;20128;-55
2021/03/11 00:49:46;;;;;;;48.42;33.38;;;21.20;50.00;;;;;;5068191;28;20034;-56
2021/03/11 00:52:14;;;;;;;36.00;30.20;;;21.10;50.00;;;;;;5073337;28;20103;-56
2021/03/11 00:54:41;;;;;;;35.15;29.65;;;21.10;50.00;;;;;;5062691;28;20032;-55
2021/03/11 00:57:07;;;;;;;35.97;30.10;;;21.10;49.90;;;;;;5052772;28;20029;-55
2021/03/11 00:59:36;;;;;;;33.15;27.65;;;21.10;50.00;;;;;;5055034;28;20028;-55
2021/03/11 01:02:03;;;;;;;35.90;28.35;;;21.10;49.90;;;;;;5072896;28;20051;-55
2021/03/11 01:04:29;;;;;;;29.50;25.85;;;21.10;49.90;;;;;;5055360;28;20039;-56
2021/03/11 01:06:56;;;;;;;30.35;26.65;;;21.10;49.90;;;;;;5054914;28;20474;-55
2021/03/11 01:09:22;;;;;;;35.80;26.15;;;21.10;50.00;;;;;;5055336;28;20046;-56
2021/03/11 01:11:48;;;;;;;29.90;24.88;;;21.10;49.90;;;;;;5070139;28;20556;-55
2021/03/11 01:14:14;;;;;;;30.25;24.65;;;21.10;49.90;;;;;;5066402;28;20024;-57
2021/03/11 01:16:44;;;;;;;25.20;22.48;;;21.10;50.00;;;;;;5073092;28;20039;-56
2021/03/11 01:19:10;;;;;;;29.80;22.80;;;21.00;49.90;;;;;;5055301;28;20040;-56
2021/03/11 01:21:36;;;;;;;27.88;21.98;;;21.00;49.90;;;;;;5073655;28;20025;-56
2021/03/11 01:24:02;;;;;;;28.23;21.10;;;21.00;49.90;;;;;;5073037;28;20024;-56
2021/03/11 01:26:28;;;;;;;26.52;20.05;;;21.00;49.90;;;;;;5072781;28;20025;-56
2021/03/11 01:28:54;;;;;;;29.95;22.23;;;21.00;49.90;;;;;;5073285;28;20032;-56
2021/03/11 01:31:20;;;;;;;21.95;19.05;;;21.00;49.90;;;;;;5072859;28;20025;-56
2021/03/11 01:33:46;;;;;;;22.85;19.95;;;21.00;49.90;;;;;;5073150;28;20023;-56
2021/03/11 01:36:11;;;;;;;24.13;18.77;;;21.00;49.90;;;;;;5072830;28;20425;-56
2021/03/11 01:38:37;;;;;;;22.50;18.27;;;21.00;49.90;;;;;;5073049;28;20033;-55
2021/03/11 01:41:03;;;;;;;23.13;17.15;;;20.90;49.90;;;;;;5072920;28;20419;-55
2021/03/11 01:43:29;;;;;;;21.48;18.25;;;20.90;49.80;;;;;;5072966;28;20025;-55
2021/03/11 01:45:55;;;;;;;25.70;17.10;;;20.90;49.90;;;;;;5072819;28;20234;-55
2021/03/11 01:48:21;;;;;;;23.92;17.52;;;20.90;49.90;;;;;;5072602;28;20111;-56
2021/03/11 01:50:47;;;;;;;17.80;15.80;;;20.90;49.90;;;;;;5055144;28;20024;-56
2021/03/11 01:53:13;;;;;;;20.00;15.82;;;20.90;49.90;;;;;;5073517;28;20505;-55
2021/03/11 01:55:40;;;;;;;22.00;16.50;;;20.90;49.90;;;;;;5072924;28;20047;-56
2021/03/11 01:58:06;;;;;;;19.73;16.30;;;20.90;49.90;;;;;;5088005;28;20032;-57
2021/03/11 02:00:32;;;;;;;19.02;15.00;;;20.80;49.90;;;;;;5078251;28;20067;-55
2021/03/11 02:02:58;;;;;;;23.23;15.27;;;20.80;49.90;;;;;;5057368;28;20102;-55
2021/03/11 02:05:25;;;;;;;18.83;15.23;;;20.80;49.90;;;;;;5047585;28;20024;-55
2021/03/11 02:07:51;;;;;;;17.42;14.27;;;20.80;49.90;;;;;;5073163;28;20020;-55
2021/03/11 02:10:23;;;;;;;17.17;12.75;;;20.80;49.80;;;;;;5072421;28;20017;-55
2021/03/11 02:13:20;;;;;;;17.50;13.65;;;20.80;49.80;;;;;;5072171;28;20044;-55
2021/03/11 02:15:52;;;;;;;17.60;12.52;;;20.80;49.90;;;;;;5072285;28;20113;-55
2021/03/11 02:18:39;;;;;;;13.95;11.98;;;20.80;49.80;;;;;;5072490;28;20493;-56
2021/03/11 02:21:09;;;;;;;17.00;12.35;;;20.80;49.70;;;;;;5053073;28;20029;-56
2021/03/11 02:24:06;;;;;;;16.95;12.75;;;20.80;49.80;;;;;;5061278;28;20020;-56
2021/03/11 02:26:54;;;;;;;15.15;11.45;;;20.80;49.80;;;;;;5076135;28;20072;-55
2021/03/11 02:29:28;;;;;;;13.27;11.05;;;20.70;49.70;;;;;;5075963;28;20025;-55
2021/03/11 02:31:57;;;;;;;13.02;11.07;;;20.70;49.70;;;;;;5076099;28;20024;-56
2021/03/11 02:34:27;;;;;;;15.65;10.82;;;20.70;49.70;;;;;;5075599;28;20028;-55
2021/03/11 02:36:58;;;;;;;15.97;12.00;;;20.70;49.60;;;;;;5075600;28;20422;-55
2021/03/11 02:39:27;;;;;;;12.40;11.07;;;20.70;49.70;;;;;;5074984;28;20478;-56
2021/03/11 02:41:55;;;;;;;13.88;10.40;;;20.70;49.70;;;;;;5075892;28;20038;-55
2021/03/11 02:44:22;;;;;;;12.98;10.43;;;20.70;49.70;;;;;;5075594;28;20032;-55
2021/03/11 02:46:50;;;;;;;16.25;10.10;;;20.70;49.80;;;;;;5075670;28;20047;-55
2021/03/11 02:49:19;;;;;;;15.40;10.18;;;20.60;49.70;;;;;;5075277;28;20016;-55
2021/03/11 02:51:46;;;;;;;11.95;10.35;;;20.60;49.70;;;;;;5075729;28;20029;-55
2021/03/11 02:54:13;;;;;;;15.23;10.13;;;20.70;49.80;;;;;;5075538;28;20040;-55
2021/03/11 02:56:40;;;;;;;10.25;8.50;;;20.60;49.70;;;;;;5075752;28;20025;-56
2021/03/11 02:59:09;;;;;;;11.75;9.00;;;20.60;49.70;;;;;;5075392;28;20029;-55
2021/03/11 03:01:38;;;;;;;14.05;10.07;;;20.60;49.70;;;;;;5075082;28;20471;-55
2021/03/11 03:04:04;;;;;;;14.27;9.15;;;20.60;49.70;;;;;;5074960;28;20032;-56
2021/03/11 03:06:32;;;;;;;12.15;7.88;;;20.60;49.70;;;;;;5075566;28;20024;-56
2021/03/11 03:08:59;;;;;;;12.00;8.65;;;20.60;49.70;;;;;;5075468;28;20047;-55
2021/03/11 03:11:25;;;;;;;13.00;9.57;;;20.60;49.70;;;;;;5075182;28;20416;-55
2021/03/11 03:13:52;;;;;;;9.98;8.57;;;20.50;49.60;;;;;;5075235;28;20085;-55
2021/03/11 03:16:19;;;;;;;12.35;8.77;;;20.60;49.70;;;;;;5075551;28;20039;-55
2021/03/11 03:18:46;;;;;;;9.02;7.93;;;20.50;49.60;;;;;;5075028;28;20098;-55
2021/03/11 03:21:13;;;;;;;12.80;8.63;;;20.50;49.70;;;;;;5057400;28;20036;-56
2021/03/11 03:23:40;;;;;;;11.48;8.15;;;20.50;49.60;;;;;;5074886;28;20028;-58
2021/03/11 03:26:06;;;;;;;12.57;8.32;;;20.50;49.70;;;;;;5075073;28;20025;-57
2021/03/11 03:28:33;;;;;;;10.00;8.32;;;20.50;49.70;;;;;;5056789;28;20413;-57
2021/03/11 03:30:59;;;;;;;14.45;8.55;;;20.50;49.70;;;;;;5074639;28;20113;-58
2021/03/11 03:33:25;;;;;;;13.35;8.77;;;20.50;49.60;;;;;;5073327;28;20028;-57
2021/03/11 03:35:51;;;;;;;8.07;7.28;;;20.40;49.60;;;;;;5075094;28;20101;-58
2021/03/11 03:38:17;;;;;;;9.23;8.00;;;20.50;49.60;;;;;;5057155;28;20032;-58
2021/03/11 03:40:44;;;;;;;12.25;8.88;;;20.40;49.60;;;;;;5074664;28;20416;-57
2021/03/11 03:43:23;;;;;;;10.43;8.02;;;20.40;49.70;;;;;;5074808;28;20102;-58
2021/03/11 03:46:07;;;;;;;9.77;7.75;;;20.40;49.70;;;;;;5074247;28;20375;-57
2021/03/11 03:48:49;;;;;;;9.07;7.18;;;20.40;49.70;;;;;;5074369;28;20032;-57
2021/03/11 03:51:18;;;;;;;10.48;7.68;;;20.40;49.70;;;;;;5057955;28;20894;-58
2021/03/11 03:53:57;;;;;;;8.32;7.10;;;20.40;49.60;;;;;;5074175;28;20020;-57
2021/03/11 03:56:28;;;;;;;9.05;7.22;;;20.30;49.60;;;;;;5056024;28;20518;-57
2021/03/11 03:59:04;;;;;;;12.40;7.80;;;20.30;49.60;;;;;;5074620;28;20061;-57
2021/03/11 04:01:34;;;;;;;9.48;7.88;;;20.30;49.60;;;;;;5056429;28;20107;-57
2021/03/11 04:04:03;;;;;;;10.65;7.32;;;20.40;49.70;;;;;;5074432;28;20055;-57
2021/03/11 04:06:30;;;;;;;10.57;8.43;;;20.30;49.60;;;;;;5073619;28;20017;-57
2021/03/11 04:08:57;;;;;;;10.85;8.05;;;20.40;49.60;;;;;;5074604;28;20024;-57
2021/03/11 04:11:23;;;;;;;8.73;7.13;;;20.30;49.60;;;;;;5073865;28;20524;-57
2021/03/11 04:13:51;;;;;;;10.40;7.60;;;20.30;49.60;;;;;;5074275;28;20056;-58
2021/03/11 04:16:19;;;;;;;11.07;7.20;;;20.30;49.70;;;;;;5073966;28;20025;-57
2021/03/11 04:18:46;;;;;;;11.52;7.63;;;20.30;49.70;;;;;;5073825;28;20539;-58
2021/03/11 04:21:13;;;;;;;11.52;8.43;;;20.30;49.70;;;;;;5073883;28;20079;-57
2021/03/11 04:23:40;;;;;;;10.07;7.93;;;20.30;49.80;;;;;;5073845;28;20093;-57
2021/03/11 04:26:06;;;;;;;8.75;6.85;;;20.30;49.80;;;;;;5073708;28;20020;-57
2021/03/11 04:28:33;;;;;;;8.75;7.35;;;20.30;49.80;;;;;;5073219;28;20097;-58
2021/03/11 04:31:00;;;;;;;10.73;7.40;;;20.30;49.80;;;;;;5073676;28;20403;-57
2021/03/11 04:33:27;;;;;;;11.95;7.38;;;20.30;50.50;;;;;;5066782;28;20170;-58
2021/03/11 04:35:54;;;;;;;10.65;8.68;;;20.30;49.90;;;;;;5069149;28;20089;-58
2021/03/11 04:38:20;;;;;;;12.85;7.72;;;20.20;49.80;;;;;;5073654;28;20033;-57
2021/03/11 04:40:47;;;;;;;9.50;7.65;;;20.20;49.80;;;;;;5071304;28;20036;-57
2021/03/11 04:43:14;;;;;;;9.65;7.70;;;20.20;49.80;;;;;;5063632;28;20039;-57
2021/03/11 04:45:43;;;;;;;10.77;8.20;;;20.20;49.80;;;;;;5073125;28;20041;-56
2021/03/11 04:48:11;;;;;;;8.70;7.57;;;20.20;49.90;;;;;;5055834;28;20086;-57
2021/03/11 04:50:42;;;;;;;9.82;7.45;;;20.20;49.80;;;;;;5055248;28;20013;-57
2021/03/11 04:53:09;;;;;;;9.00;8.10;;;20.20;49.80;;;;;;5071654;28;20391;-56
2021/03/11 04:55:36;;;;;;;13.55;7.82;;;20.20;50.40;;;;;;5061373;28;20138;-56
2021/03/11 04:58:03;;;;;;;9.90;7.75;;;20.20;49.80;;;;;;5072767;28;20032;-57
2021/03/11 05:00:31;;;;;;;13.13;8.00;;;20.20;49.80;;;;;;5055953;28;20529;-57
2021/03/11 05:02:59;;;;;;;9.13;7.65;;;20.20;49.80;;;;;;5055428;28;20390;-57
2021/03/11 05:05:39;;;;;;;11.38;8.13;;;20.20;49.80;;;;;;5073534;28;20025;-58
2021/03/11 05:08:05;;;;;;;10.65;8.25;;;20.20;49.70;;;;;;5073349;28;20024;-57
2021/03/11 05:10:33;;;;;;;11.80;8.65;;;20.20;49.70;;;;;;5073376;28;20056;-58
2021/03/11 05:12:59;;;;;;;15.00;7.90;;;20.20;49.70;;;;;;5073931;28;20044;-57
2021/03/11 05:15:26;;;;;;;12.18;7.57;;;20.10;49.60;;;;;;5081353;28;20481;-58
2021/03/11 05:17:52;;;;;;;11.02;7.50;;;20.10;49.70;;;;;;5073430;28;20033;-58
2021/03/11 05:20:19;;;;;;;7.88;7.10;;;20.10;49.60;;;;;;5073431;28;20241;-58
2021/03/11 05:22:45;;;;;;;10.90;7.88;;;20.10;49.60;;;;;;5072983;28;20032;-58
2021/03/11 05:25:12;;;;;;;12.45;7.20;;;20.10;49.70;;;;;;5060388;28;20033;-58
2021/03/11 05:27:40;;;;;;;7.93;7.13;;;20.10;49.60;;;;;;5071035;28;20415;-56
2021/03/11 05:30:09;;;;;;;10.18;7.35;;;20.10;49.70;;;;;;5072967;28;20025;-56
2021/03/11 05:32:35;;;;;;;11.70;7.20;;;20.10;49.60;;;;;;5073481;28;20021;-57
2021/03/11 05:35:02;;;;;;;9.35;7.35;;;20.10;49.60;;;;;;5072899;28;20035;-59
2021/03/11 05:37:28;;;;;;;9.70;7.97;;;20.10;49.60;;;;;;5071506;28;20024;-57
2021/03/11 05:39:54;;;;;;;9.05;7.50;;;20.10;49.60;;;;;;5072875;28;20033;-57
2021/03/11 05:42:20;;;;;;;9.70;7.82;;;20.10;49.60;;;;;;5055029;28;20032;-54
2021/03/11 05:44:47;;;;;;;12.35;8.13;;;20.10;49.60;;;;;;5072681;28;20034;-57
2021/03/11 05:47:14;;;;;;;10.75;7.47;;;20.10;49.50;;;;;;5073010;28;20052;-57
2021/03/11 05:49:41;;;;;;;10.90;8.07;;;20.10;49.50;;;;;;5072789;28;20482;-57
2021/03/11 05:52:12;;;;;;;9.43;7.78;;;20.00;49.40;;;;;;5072604;28;20025;-57
2021/03/11 05:54:38;;;;;;;;;;;20.00;49.30;;;;;;5073260;28;20102;-57
2021/03/11 05:57:06;;;;;;;9.25;7.35;;;20.00;49.50;;;;;;5074027;28;20015;-58
2021/03/11 05:59:33;;;;;;;11.75;7.32;;;20.10;49.20;;;;;;5058528;28;20043;-58
2021/03/11 06:02:05;;;;;;;10.63;7.35;;;20.00;49.20;;;;;;5076144;28;20028;-57
2021/03/11 06:04:35;;;;;;;12.45;7.90;;;20.00;49.20;;;;;;5076209;28;20056;-59
2021/03/11 06:07:06;;;;;;;9.50;7.07;;;20.00;49.30;;;;;;5071643;28;20033;-57
2021/03/11 06:09:34;;;;;;;8.05;6.95;;;20.00;49.20;;;;;;5067390;28;20024;-57
2021/03/11 06:12:02;;;;;;;10.30;7.20;;;20.00;49.30;;;;;;5073100;28;20446;-55
2021/03/11 06:14:34;;;;;;;14.52;7.47;;;20.00;49.20;;;;;;5074960;28;20402;-55
2021/03/11 06:17:05;;;;;;;14.32;7.15;;;19.90;49.20;;;;;;5054780;28;20086;-57
2021/03/11 06:19:32;;;;;;;12.05;7.57;;;19.90;49.20;;;;;;5082585;28;20036;-58
2021/03/11 06:21:58;;;;;;;11.85;7.20;;;19.90;49.20;;;;;;5073238;28;20036;-58
2021/03/11 06:24:24;;;;;;;12.07;7.47;;;19.90;49.00;;;;;;5074475;28;20032;-58
2021/03/11 06:26:50;;;;;;;11.95;7.00;;;19.90;49.10;;;;;;5075225;28;20032;-57
2021/03/11 06:29:17;;;;;;;12.90;7.13;;;19.90;49.10;;;;;;5075922;28;20067;-59
2021/03/11 06:31:44;;;;;;;24.95;19.23;;;19.90;49.00;;;;;;5074927;28;20169;-56
2021/03/11 06:34:22;;;;;;;49.60;43.15;;;19.90;48.90;;;;;;5074636;28;20039;-55
2021/03/11 06:36:49;;;;;;;56.58;45.67;;;19.90;48.80;;;;;;5057266;28;20116;-57
2021/03/11 06:39:24;;;;;;;218.90;195.27;;;19.90;48.80;;;;;;5064795;28;20033;-57
2021/03/11 06:41:50;;;;;;;143.00;125.82;;;19.90;48.70;;;;;;5057820;28;20036;-58
2021/03/11 06:44:16;;;;;;;163.90;142.80;;;19.90;48.80;;;;;;5075391;28;20374;-58
2021/03/11 06:46:59;;;;;;;155.98;134.63;;;19.80;48.80;;;;;;5101587;28;20165;-55
2021/03/11 06:49:26;;;;;;;137.52;119.22;;;19.80;48.80;;;;;;5078787;28;20027;-57
2021/03/11 06:52:09;;;;;;;123.85;109.43;;;19.80;48.80;;;;;;5064672;28;20028;-57
2021/03/11 06:54:57;;;;;;;124.28;110.63;;;19.80;48.80;;;;;;5098041;28;20496;-57
2021/03/11 06:57:28;;;;;;;106.47;93.50;;;19.80;48.80;;;;;;5105161;28;20028;-55
2021/03/11 06:59:56;;;;;;;96.75;85.85;;;19.80;48.70;;;;;;5101477;28;20468;-55
2021/03/11 07:02:23;;;;;;;90.05;77.68;;;19.70;48.70;;;;;;5086574;28;20556;-55
2021/03/11 07:04:49;;;;;;;79.43;68.20;;;19.70;48.70;;;;;;5081221;28;20028;-56
2021/03/11 07:07:20;;;;;;;73.90;65.43;;;19.70;48.60;;;;;;5092780;28;20036;-55
2021/03/11 07:09:46;;;;;;;;;;;19.60;48.60;;;;;;5096021;28;20028;-57
2021/03/11 07:12:12;;;;;;;56.92;50.63;;;19.60;48.80;;;;;;5095266;28;19983;-57
2021/03/11 07:14:38;;;;;;;57.20;49.60;;;19.70;48.50;;;;;;5095000;28;20031;-56
2021/03/11 07:17:19;;;;;;;225.18;193.98;;;19.60;48.40;;;;;;5093838;28;20024;-56
2021/03/11 07:20:04;;;;;;;;;;;19.60;48.10;;;;;;5094656;28;20028;-56
2021/03/11 07:22:30;;;;;;;146.63;130.05;;;19.60;48.40;;;;;;5094593;28;19919;-60
2021/03/11 07:24:56;;;;;;;133.82;114.57;;;19.60;48.20;;;;;;5096914;28;20035;-55
2021/03/11 07:27:22;;;;;;;118.57;102.32;;;19.60;48.20;;;;;;5103388;28;20027;-57
2021/03/11 07:30:04;;;;;;;103.68;84.10;;;19.60;48.30;;;;;;5110699;28;20111;-57
2021/03/11 07:32:33;;;;;;;90.95;78.85;;;19.50;48.30;;;;;;5093931;28;20032;-57
2021/03/11 07:35:00;;;;;;;86.35;73.28;;;19.50;48.40;;;;;;5076257;28;20042;-58
2021/03/11 07:37:27;;;;;;;84.20;71.93;;;19.50;48.40;;;;;;5094725;28;20024;-56
2021/03/11 07:39:58;;;;;;;83.70;70.97;;;19.50;48.50;;;;;;5094726;28;20482;-55
2021/03/11 07:42:24;;;;;;;78.03;68.25;;;19.60;48.60;;;;;;5094826;28;20032;-56
2021/03/11 07:44:51;;;;;;;73.03;64.43;;;19.60;48.60;;;;;;5076455;28;20075;-56
2021/03/11 07:47:18;;;;;;;71.18;63.40;;;19.60;48.60;;;;;;5077696;28;20037;-56
2021/03/11 07:49:44;;;;;;;72.43;62.85;;;19.60;48.60;;;;;;5074187;28;20032;-55
2021/03/11 07:52:11;;;;;;;71.63;61.95;;;19.70;48.70;;;;;;5056652;28;20028;-56
2021/03/11 07:54:37;;;;;;;75.45;64.68;;;19.70;48.60;;;;;;5074418;28;20029;-56
2021/03/11 07:57:04;;;;;;;76.82;67.88;;;19.70;48.50;;;;;;5073767;28;20119;-55
2021/03/11 07:59:31;;;;;;;88.60;72.03;;;19.70;48.50;;;;;;5055705;28;20024;-55
2021/03/11 08:02:01;;;;;;;88.60;75.03;;;19.80;48.60;;;;;;5080750;28;20020;-53
2021/03/11 08:04:32;;;;;;;77.03;68.53;;;19.80;48.70;;;;;;5094326;28;20032;-54
2021/03/11 08:07:21;;;;;;;77.65;65.95;;;19.80;48.80;;;;;;5069377;28;20036;-54
2021/03/11 08:09:49;;;;;;;72.38;57.65;;;19.90;48.80;;;;;;5062677;28;20347;-55
2021/03/11 08:12:37;;;;;;;62.13;54.85;;;19.90;48.60;;;;;;5056073;28;20020;-55
2021/03/11 08:15:18;;;;;;;73.53;58.30;;;19.90;48.60;;;;;;5073839;28;20387;-55
2021/03/11 08:17:48;;;;;;;;;;;20.00;48.70;;;;;;5067752;28;20040;-54
2021/03/11 08:20:19;;;;;;;69.03;58.05;;;20.00;48.90;;;;;;5055399;28;20338;-55
2021/03/11 08:22:52;;;;;;;68.50;58.00;;;20.00;48.50;;;;;;5073611;28;20051;-55
2021/03/11 08:25:41;;;;;;;63.15;54.78;;;20.10;48.50;;;;;;5055875;28;20727;-55
2021/03/11 08:28:08;;;;;;;73.37;60.93;;;20.10;48.60;;;;;;5049432;28;20037;-55
2021/03/11 08:30:40;;;;;;;65.82;55.50;;;20.10;48.60;;;;;;5073326;28;20116;-55
2021/03/11 08:33:09;;;;;;;460.65;411.05;;;20.10;48.60;;;;;;5072660;28;20028;-55
2021/03/11 08:35:40;;;;;;;216.07;191.32;;;20.10;48.50;;;;;;5073316;28;20492;-55
2021/03/11 08:38:21;;;;;;;;;;;20.10;48.30;;;;;;5074028;28;20055;-55
2021/03/11 08:40:58;;;;;;;123.28;105.60;;;20.20;48.70;;;;;;5073215;28;19912;-56
2021/03/11 08:43:53;;;;;;;105.95;94.18;;;20.30;48.60;;;;;;5073055;28;20037;-55
2021/03/11 08:46:50;;;;;;;94.97;80.25;;;20.30;48.60;;;;;;5059917;28;20068;-55
2021/03/11 08:49:44;;;;;;;75.13;62.65;;;20.30;48.60;;;;;;5073060;28;20036;-55
2021/03/11 08:52:38;;;;;;;71.00;59.20;;;20.40;48.50;;;;;;5070146;28;20032;-55
2021/03/11 08:55:29;;;;;;;67.50;57.42;;;20.40;48.40;;;;;;5073199;28;20393;-55
2021/03/11 08:57:55;;;;;;;60.78;52.10;;;20.40;48.40;;;;;;5072764;28;20363;-55
2021/03/11 09:00:54;;;;;;;52.00;42.30;;;20.50;48.30;;;;;;5054733;28;20048;-54
2021/03/11 09:03:46;;;;;;;34.53;27.80;;;20.40;48.20;;;;;;5072668;28;20032;-55
2021/03/11 09:06:14;;;;;;;44.38;31.58;;;20.50;47.70;;;;;;5072443;28;20060;-71
2021/03/11 09:08:52;;;;;;;39.10;28.42;;;20.50;47.50;;;;;;5055091;28;20099;-68
2021/03/11 09:11:22;;;;;;;29.13;23.08;;;20.50;47.20;;;;;;5088125;28;20029;-70
2021/03/11 09:13:50;;;;;;;38.78;30.38;;;20.50;47.20;;;;;;5083969;28;20025;-69
2021/03/11 09:16:16;;;;;;;36.75;31.38;;;20.50;47.10;;;;;;5045895;28;20484;-69
2021/03/11 09:18:43;;;;;;;51.38;29.90;;;20.50;47.00;;;;;;5072342;28;20743;-67
2021/03/11 09:21:09;;;;;;;36.78;26.25;;;20.50;47.00;;;;;;5071062;28;20032;-64
2021/03/11 09:23:40;;;;;;;29.48;23.85;;;20.50;46.80;;;;;;5071842;28;20040;-64
2021/03/11 09:26:22;;;;;;;31.50;24.95;;;20.60;46.80;;;;;;5071914;28;20033;-61
2021/03/11 09:28:48;;;;;;;43.53;31.10;;;20.60;46.80;;;;;;5072604;28;20383;-61
2021/03/11 09:31:22;;;;;;;33.33;26.08;;;20.60;46.70;;;;;;5072777;28;20020;-61
2021/03/11 09:33:48;;;;;;;32.15;20.88;;;20.60;46.30;;;;;;5076548;28;20021;-62
2021/03/11 09:36:16;;;;;;;27.98;19.85;;;20.60;46.40;;;;;;5076808;28;20074;-64
2021/03/11 09:38:43;;;;;;;24.52;16.67;;;20.60;46.40;;;;;;5092396;28;20036;-63
2021/03/11 09:41:09;;;;;;;21.52;15.52;;;20.60;46.30;;;;;;5092257;28;20024;-62
2021/03/11 09:43:37;;;;;;;21.60;16.35;;;20.70;46.50;;;;;;5076347;28;20024;-60
2021/03/11 09:46:14;;;;;;;17.90;15.98;;;20.70;46.40;;;;;;5086213;28;20047;-61
2021/03/11 09:48:41;;;;;;;17.63;12.98;;;20.80;46.30;;;;;;5099917;28;20067;-62
2021/03/11 09:51:14;;;;;;;18.90;12.63;;;20.80;46.40;;;;;;5112199;28;20032;-60
2021/03/11 09:53:51;;;;;;;20.48;12.82;;;20.90;46.30;;;;;;5096141;28;20157;-60
2021/03/11 09:56:20;;;;;;;24.92;13.57;;;21.10;46.30;;;;;;5096294;28;20028;-62
2021/03/11 09:58:48;;;;;;;15.88;10.50;;;21.40;46.20;;;;;;5095572;28;20131;-69
2021/03/11 10:01:48;;;;;;;129.43;110.82;;;21.70;45.70;;;;;;5077918;28;20114;-65
2021/03/11 10:04:17;;;;;;;58.30;49.50;;;22.20;45.90;;;;;;5103932;28;20067;-69
2021/03/11 10:06:53;;;;;;;73.57;64.68;;;22.40;44.50;;;;;;5078067;28;20034;-72
2021/03/11 10:09:20;;;;;;;51.38;45.80;;;22.60;43.90;;;;;;5095066;28;20047;-72
2021/03/11 10:11:52;;;;;;;35.85;28.25;;;22.80;44.20;;;;;;5094776;28;20043;-71
2021/03/11 10:14:22;;;;;;;27.30;22.75;;;22.90;44.20;;;;;;5094710;28;20118;-76
2021/03/11 10:16:56;;;;;;;26.85;22.35;;;23.10;44.10;;;;;;5076471;28;20046;-75
2021/03/11 10:19:26;;;;;;;25.02;20.75;;;23.30;43.60;;;;;;5060455;28;20024;-73
2021/03/11 10:21:55;;;;;;;23.35;19.95;;;23.50;44.50;;;;;;5092735;28;20055;-72
2021/03/11 10:24:41;;;;;;;26.20;19.23;;;23.70;44.60;;;;;;5094872;28;20066;-71
2021/03/11 10:27:16;;;;;;;24.17;17.83;;;23.80;44.80;;;;;;5077140;28;20209;-69
2021/03/11 10:29:43;;;;;;;22.05;17.83;;;24.00;45.10;;;;;;5060325;28;20403;-70
2021/03/11 10:32:09;;;;;;;21.10;17.23;;;24.10;44.90;;;;;;5076852;28;20065;-68
2021/03/11 10:34:50;;;;;;;21.98;16.98;;;24.30;44.90;;;;;;5059690;28;20393;-69
2021/03/11 10:37:37;;;;;;;19.83;14.73;;;24.30;44.60;;;;;;5076500;28;20071;-68
2021/03/11 10:40:06;;;;;;;14.73;12.60;;;24.40;44.80;;;;;;5076936;28;20036;-72
2021/03/11 10:43:01;;;;;;;14.23;10.98;;;24.50;45.30;;;;;;5093884;28;20112;-71
2021/03/11 10:45:37;;;;;;;16.88;12.35;;;24.50;45.80;;;;;;5062061;28;20477;-73
2021/03/11 10:48:07;;;;;;;18.02;12.13;;;24.60;45.80;;;;;;5056508;28;20036;-72
2021/03/11 10:50:40;;;;;;;18.25;14.25;;;24.60;45.90;;;;;;5056245;28;20032;-69
2021/03/11 10:53:06;;;;;;;45.72;38.83;;;24.60;44.90;;;;;;5074303;28;20032;-68
2021/03/11 10:55:38;;;;;;;50.42;39.60;;;24.60;44.90;;;;;;5074517;28;20035;-72
2021/03/11 10:58:05;;;;;;;49.53;40.45;;;24.70;45.30;;;;;;5056682;28;20032;-71
2021/03/11 11:00:32;;;;;;;27.55;22.17;;;24.70;45.50;;;;;;5074904;28;20028;-68
2021/03/11 11:03:01;;;;;;;29.77;22.10;;;24.80;45.90;;;;;;5043433;28;20029;-67
2021/03/11 11:05:28;;;;;;;19.13;13.07;;;24.90;45.80;;;;;;5053812;28;20033;-70
2021/03/11 11:07:55;;;;;;;14.95;12.40;;;25.00;46.60;;;;;;5054383;28;20091;-69
2021/03/11 11:10:23;;;;;;;14.57;10.15;;;25.20;45.90;;;;;;5035463;28;20064;-70
2021/03/11 11:12:49;;;;;;;14.40;9.85;;;25.40;45.50;;;;;;5039501;28;20020;-67
2021/03/11 11:15:16;;;;;;;16.80;9.82;;;25.60;45.30;;;;;;5090207;28;20044;-69
2021/03/11 11:17:43;;;;;;;13.10;9.35;;;25.70;45.20;;;;;;5090514;28;20047;-68
2021/03/11 11:20:11;;;;;;;12.98;9.38;;;25.80;45.10;;;;;;5097004;28;20062;-66
2021/03/11 11:22:38;;;;;;;12.23;7.68;;;25.80;45.30;;;;;;5055486;28;20493;-68
2021/03/11 11:25:05;;;;;;;14.45;8.63;;;25.80;45.50;;;;;;5055087;28;20024;-67
2021/03/11 11:27:31;;;;;;;13.02;8.57;;;25.80;45.70;;;;;;5073268;28;20108;-69
2021/03/11 11:29:57;;;;;;;13.05;8.60;;;25.90;46.00;;;;;;5055182;28;20027;-67
2021/03/11 11:32:23;;;;;;;12.75;7.95;;;25.80;45.70;;;;;;5072759;28;20028;-68
2021/03/11 11:34:51;;;;;;;14.35;8.18;;;26.00;45.70;;;;;;5055414;28;20063;-66
2021/03/11 11:37:18;;;;;;;12.40;7.95;;;26.10;45.50;;;;;;5038471;28;20040;-68
2021/03/11 11:39:44;;;;;;;9.80;8.20;;;26.40;45.40;;;;;;5054613;28;20367;-67
2021/03/11 11:42:11;;;;;;;13.25;7.50;;;26.60;44.90;;;;;;5055263;28;20489;-68
2021/03/11 11:44:39;;;;;;;11.98;6.90;;;26.90;44.40;;;;;;5088910;28;20158;-68
2021/03/11 11:47:06;;;;;;;11.85;7.63;;;27.00;43.80;;;;;;5087621;28;20040;-67
2021/03/11 11:49:33;;;;;;;11.07;7.30;;;27.20;43.80;;;;;;5075234;28;20111;-67
2021/03/11 11:51:59;;;;;;;10.52;6.90;;;27.30;43.60;;;;;;5093052;28;20024;-67
2021/03/11 11:54:26;;;;;;;10.02;6.50;;;27.40;43.60;;;;;;5073031;28;20024;-68
2021/03/11 11:56:53;;;;;;;101.63;91.15;;;27.50;43.50;;;;;;5074443;28;20028;-62
2021/03/11 11:59:20;;;;;;;55.47;49.63;;;27.50;43.30;;;;;;5109865;28;20032;-70
2021/03/11 12:01:46;;;;;;;17.90;15.82;;;27.60;42.90;;;;;;5093393;28;20024;-71
2021/03/11 12:04:13;;;;;;;29.38;25.27;;;27.60;42.40;;;;;;5093676;28;20028;-70
2021/03/11 12:06:39;;;;;;;11.82;7.63;;;27.80;42.50;;;;;;5107903;28;20028;-72
2021/03/11 12:09:06;;;;;;;12.60;7.85;;;27.90;42.10;;;;;;5093457;28;20133;-70
2021/03/11 12:11:33;;;;;;;12.85;7.35;;;28.00;42.20;;;;;;5093404;28;20028;-72
2021/03/11 12:14:00;;;;;;;27.33;20.83;;;28.20;41.80;;;;;;5075331;28;20083;-64
2021/03/11 12:16:26;;;;;;;17.17;13.73;;;28.30;41.40;;;;;;5058441;28;20077;-69
2021/03/11 12:18:52;;;;;;;14.43;5.78;;;28.50;41.40;;;;;;5074968;28;20028;-69
2021/03/11 12:21:18;;;;;;;9.35;6.80;;;28.60;41.00;;;;;;5075281;28;20020;-70
2021/03/11 12:23:45;;;;;;;9.48;5.32;;;28.80;41.00;;;;;;5074969;28;20028;-69
2021/03/11 12:26:11;;;;;;;7.80;5.28;;;28.90;40.70;;;;;;5058403;28;20051;-68
2021/03/11 12:28:37;;;;;;;11.15;5.65;;;28.90;40.60;;;;;;5075586;28;20035;-68
2021/03/11 12:31:04;;;;;;;6.95;4.60;;;28.90;40.60;;;;;;5075213;28;20035;-69
2021/03/11 12:33:30;;;;;;;11.25;6.90;;;29.00;40.20;;;;;;5075401;28;20031;-69
2021/03/11 12:35:56;;;;;;;11.60;8.73;;;29.00;39.90;;;;;;5042397;28;20032;-69
2021/03/11 12:38:22;;;;;;;12.93;11.48;;;28.80;39.80;;;;;;5075124;28;20035;-68
2021/03/11 12:40:49;;;;;;;15.20;10.93;;;28.60;39.80;;;;;;5075517;28;20032;-69
2021/03/11 12:43:15;;;;;;;11.80;10.52;;;28.40;40.20;;;;;;5093757;28;20054;-70
2021/03/11 12:45:41;;;;;;;11.32;9.77;;;27.90;40.30;;;;;;5093132;28;20057;-69